sensor_id;sensor_type;location;lat;lon;timestamp;pressure;altitude;pressure_sealevel;temperature;humidity
59435;BME280;45241;49.768;8.636;2024-01-06T00:01:59;99012.03;;;6.00;100.00
59435;BME280;45241;49.768;8.636;2024-01-06T00:04:25;99013.69;;;6.01;100.00
59435;BME280;45241;49.768;8.636;2024-01-06T00:06:50;99017.78;;;6.03;100.00
59435;BME280;45241;49.768;8.636;2024-01-06T00:09:15;99012.44;;;5.97;100.00
59435;BME280;45241;49.768;8.636;2024-01-06T00:11:40;99014.47;;;5.95;100.00
59435;BME280;45241;49.768;8.636;2024-01-06T00:14:06;99015.97;;;5.82;100.00
59435;BME280;45241;49.768;8.636;2024-01-06T00:16:31;99014.91;;;5.98;100.00
59435;BME280;45241;49.768;8.636;2024-01-06T00:18:56;99013.25;;;5.97;100.00
59435;BME280;45241;49.768;8.636;2024-01-06T00:21:22;99013.69;;;6.01;100.00
59435;BME280;45241;49.768;8.636;2024-01-06T00:23:47;99020.66;;;6.02;100.00
59435;BME280;45241;49.768;8.636;2024-01-06T00:26:12;99021.22;;;5.97;100.00
59435;BME280;45241;49.768;8.636;2024-01-06T00:28:38;99020.28;;;6.05;100.00
59435;BME280;45241;49.768;8.636;2024-01-06T00:31:04;99026.16;;;6.00;100.00
59435;BME280;45241;49.768;8.636;2024-01-06T00:33:30;99022.94;;;5.41;100.00
59435;BME280;45241;49.768;8.636;2024-01-06T00:35:55;99019.75;;;5.52;100.00
59435;BME280;45241;49.768;8.636;2024-01-06T00:38:21;99014.47;;;5.73;100.00
59435;BME280;45241;49.768;8.636;2024-01-06T00:40:46;99016.91;;;5.75;100.00
59435;BME280;45241;49.768;8.636;2024-01-06T00:43:11;99025.84;;;5.89;100.00
59435;BME280;45241;49.768;8.636;2024-01-06T00:45:37;99013.56;;;5.88;100.00
59435;BME280;45241;49.768;8.636;2024-01-06T00:48:03;99020.88;;;5.79;100.00
59435;BME280;45241;49.768;8.636;2024-01-06T00:50:28;99026.84;;;5.45;100.00
59435;BME280;45241;49.768;8.636;2024-01-06T00:52:54;99027.38;;;5.55;100.00
59435;BME280;45241;49.768;8.636;2024-01-06T00:55:19;99027.69;;;5.67;100.00
59435;BME280;45241;49.768;8.636;2024-01-06T00:57:45;99031.44;;;5.72;100.00
59435;BME280;45241;49.768;8.636;2024-01-06T01:00:11;99028.25;;;5.83;100.00
59435;BME280;45241;49.768;8.636;2024-01-06T01:02:36;99038.09;;;5.83;100.00
59435;BME280;45241;49.768;8.636;2024-01-06T01:05:01;99047.50;;;5.86;100.00
59435;BME280;45241;49.768;8.636;2024-01-06T01:07:27;99043.44;;;5.90;100.00
59435;BME280;45241;49.768;8.636;2024-01-06T01:09:52;99042.72;;;5.96;100.00
59435;BME280;45241;49.768;8.636;2024-01-06T01:12:17;99048.97;;;6.09;100.00
59435;BME280;45241;49.768;8.636;2024-01-06T01:14:43;99045.38;;;5.96;100.00
59435;BME280;45241;49.768;8.636;2024-01-06T01:17:08;99043.69;;;6.16;100.00
59435;BME280;45241;49.768;8.636;2024-01-06T01:19:33;99044.69;;;6.15;100.00
59435;BME280;45241;49.768;8.636;2024-01-06T01:21:59;99055.81;;;5.97;100.00
59435;BME280;45241;49.768;8.636;2024-01-06T01:24:24;99050.94;;;6.01;100.00
59435;BME280;45241;49.768;8.636;2024-01-06T01:26:50;99057.16;;;6.08;100.00
59435;BME280;45241;49.768;8.636;2024-01-06T01:29:16;99055.75;;;6.12;100.00
59435;BME280;45241;49.768;8.636;2024-01-06T01:31:41;99054.72;;;5.92;100.00
59435;BME280;45241;49.768;8.636;2024-01-06T01:34:06;99056.31;;;6.07;100.00
59435;BME280;45241;49.768;8.636;2024-01-06T01:36:32;99060.81;;;6.07;100.00
59435;BME280;45241;49.768;8.636;2024-01-06T01:38:57;99066.88;;;6.01;100.00
59435;BME280;45241;49.768;8.636;2024-01-06T01:41:22;99061.66;;;6.07;100.00
59435;BME280;45241;49.768;8.636;2024-01-06T01:43:48;99058.53;;;6.04;100.00
59435;BME280;45241;49.768;8.636;2024-01-06T01:46:13;99070.19;;;6.03;100.00
59435;BME280;45241;49.768;8.636;2024-01-06T01:48:39;99074.31;;;6.05;100.00
59435;BME280;45241;49.768;8.636;2024-01-06T01:51:05;99070.25;;;6.09;100.00
59435;BME280;45241;49.768;8.636;2024-01-06T01:53:31;99075.06;;;5.99;100.00
59435;BME280;45241;49.768;8.636;2024-01-06T01:55:57;99071.00;;;6.03;100.00
59435;BME280;45241;49.768;8.636;2024-01-06T01:58:23;99070.19;;;6.03;100.00
59435;BME280;45241;49.768;8.636;2024-01-06T02:00:48;99076.50;;;6.02;100.00
59435;BME280;45241;49.768;8.636;2024-01-06T02:03:13;99073.63;;;6.18;100.00
59435;BME280;45241;49.768;8.636;2024-01-06T02:05:39;99077.03;;;6.12;100.00
59435;BME280;45241;49.768;8.636;2024-01-06T02:08:05;99080.00;;;6.02;100.00
59435;BME280;45241;49.768;8.636;2024-01-06T02:10:31;99075.50;;;6.03;100.00
59435;BME280;45241;49.768;8.636;2024-01-06T02:12:56;99081.53;;;6.33;100.00
59435;BME280;45241;49.768;8.636;2024-01-06T02:15:21;99067.91;;;6.21;100.00
59435;BME280;45241;49.768;8.636;2024-01-06T02:17:47;99066.69;;;6.24;100.00
59435;BME280;45241;49.768;8.636;2024-01-06T02:20:13;99065.75;;;6.10;100.00
59435;BME280;45241;49.768;8.636;2024-01-06T02:22:39;99063.91;;;6.10;100.00
59435;BME280;45241;49.768;8.636;2024-01-06T02:25:07;99065.31;;;6.06;100.00
59435;BME280;45241;49.768;8.636;2024-01-06T02:27:40;99065.88;;;6.02;100.00
59435;BME280;45241;49.768;8.636;2024-01-06T02:30:07;99066.88;;;6.01;100.00
59435;BME280;45241;49.768;8.636;2024-01-06T02:32:32;99074.31;;;6.05;100.00
59435;BME280;45241;49.768;8.636;2024-01-06T02:34:58;99072.31;;;6.14;100.00
59435;BME280;45241;49.768;8.636;2024-01-06T02:37:23;99078.09;;;6.18;100.00
59435;BME280;45241;49.768;8.636;2024-01-06T02:39:48;99079.41;;;6.28;100.00
59435;BME280;45241;49.768;8.636;2024-01-06T02:42:13;99086.34;;;6.23;100.00
59435;BME280;45241;49.768;8.636;2024-01-06T02:44:39;99090.13;;;6.13;100.00
59435;BME280;45241;49.768;8.636;2024-01-06T02:47:04;99085.13;;;6.04;100.00
59435;BME280;45241;49.768;8.636;2024-01-06T02:49:30;99086.97;;;6.25;100.00
59435;BME280;45241;49.768;8.636;2024-01-06T02:51:55;99080.81;;;6.24;100.00
59435;BME280;45241;49.768;8.636;2024-01-06T02:54:20;99090.13;;;6.35;100.00
59435;BME280;45241;49.768;8.636;2024-01-06T02:56:45;99091.59;;;6.16;100.00
59435;BME280;45241;49.768;8.636;2024-01-06T02:59:11;99089.69;;;6.10;100.00
59435;BME280;45241;49.768;8.636;2024-01-06T03:01:36;99095.13;;;6.02;100.00
59435;BME280;45241;49.768;8.636;2024-01-06T03:04:01;99100.94;;;5.91;100.00
59435;BME280;45241;49.768;8.636;2024-01-06T03:06:27;99095.63;;;5.91;100.00
59435;BME280;45241;49.768;8.636;2024-01-06T03:08:53;99099.25;;;6.04;100.00
59435;BME280;45241;49.768;8.636;2024-01-06T03:11:18;99097.69;;;6.10;100.00
59435;BME280;45241;49.768;8.636;2024-01-06T03:13:43;99108.00;;;5.98;100.00
59435;BME280;45241;49.768;8.636;2024-01-06T03:16:11;99099.75;;;6.14;100.00
59435;BME280;45241;49.768;8.636;2024-01-06T03:18:36;99100.09;;;6.05;100.00
59435;BME280;45241;49.768;8.636;2024-01-06T03:21:01;99095.31;;;6.00;100.00
59435;BME280;45241;49.768;8.636;2024-01-06T03:23:27;99105.03;;;6.08;100.00
59435;BME280;45241;49.768;8.636;2024-01-06T03:25:52;99102.50;;;6.21;100.00
59435;BME280;45241;49.768;8.636;2024-01-06T03:28:17;99100.28;;;6.25;100.00
59435;BME280;45241;49.768;8.636;2024-01-06T03:30:42;99104.16;;;6.22;100.00
59435;BME280;45241;49.768;8.636;2024-01-06T03:33:08;99099.31;;;6.11;100.00
59435;BME280;45241;49.768;8.636;2024-01-06T03:35:33;99109.59;;;6.14;100.00
59435;BME280;45241;49.768;8.636;2024-01-06T03:37:58;99108.84;;;6.20;100.00
59435;BME280;45241;49.768;8.636;2024-01-06T03:40:23;99108.44;;;6.23;100.00
59435;BME280;45241;49.768;8.636;2024-01-06T03:42:49;99111.50;;;6.20;100.00
59435;BME280;45241;49.768;8.636;2024-01-06T03:45:14;99109.06;;;6.04;100.00
59435;BME280;45241;49.768;8.636;2024-01-06T03:47:40;99115.84;;;6.28;100.00
59435;BME280;45241;49.768;8.636;2024-01-06T03:50:05;99118.84;;;6.18;100.00
59435;BME280;45241;49.768;8.636;2024-01-06T03:52:31;99121.56;;;6.25;100.00
59435;BME280;45241;49.768;8.636;2024-01-06T03:54:56;99126.97;;;6.31;100.00
59435;BME280;45241;49.768;8.636;2024-01-06T03:57:21;99123.91;;;6.13;100.00
59435;BME280;45241;49.768;8.636;2024-01-06T03:59:46;99130.25;;;6.12;100.00
59435;BME280;45241;49.768;8.636;2024-01-06T04:02:12;99127.34;;;6.07;100.00
59435;BME280;45241;49.768;8.636;2024-01-06T04:04:37;99129.72;;;6.02;100.00
59435;BME280;45241;49.768;8.636;2024-01-06T04:07:02;99134.03;;;6.03;100.00
59435;BME280;45241;49.768;8.636;2024-01-06T04:09:28;99139.25;;;6.32;100.00
59435;BME280;45241;49.768;8.636;2024-01-06T04:11:53;99133.84;;;6.26;100.00
59435;BME280;45241;49.768;8.636;2024-01-06T04:14:18;99136.28;;;6.21;100.00
59435;BME280;45241;49.768;8.636;2024-01-06T04:16:44;99134.94;;;6.10;100.00
59435;BME280;45241;49.768;8.636;2024-01-06T04:19:09;99135.66;;;6.19;100.00
59435;BME280;45241;49.768;8.636;2024-01-06T04:21:36;99135.50;;;6.05;100.00
59435;BME280;45241;49.768;8.636;2024-01-06T04:24:02;99141.00;;;6.04;100.00
59435;BME280;45241;49.768;8.636;2024-01-06T04:26:27;99140.56;;;6.00;100.00
59435;BME280;45241;49.768;8.636;2024-01-06T04:28:52;99141.50;;;5.93;100.00
59435;BME280;45241;49.768;8.636;2024-01-06T04:31:17;99139.63;;;6.08;100.00
59435;BME280;45241;49.768;8.636;2024-01-06T04:33:43;99136.50;;;6.04;100.00
59435;BME280;45241;49.768;8.636;2024-01-06T04:36:08;99134.75;;;6.33;100.00
59435;BME280;45241;49.768;8.636;2024-01-06T04:38:33;99137.34;;;6.05;100.00
59435;BME280;45241;49.768;8.636;2024-01-06T04:40:59;99142.66;;;6.05;100.00
59435;BME280;45241;49.768;8.636;2024-01-06T04:43:24;99134.03;;;6.03;100.00
59435;BME280;45241;49.768;8.636;2024-01-06T04:45:49;99135.50;;;6.27;100.00
59435;BME280;45241;49.768;8.636;2024-01-06T04:48:15;99128.22;;;6.14;100.00
59435;BME280;45241;49.768;8.636;2024-01-06T04:50:41;99121.88;;;6.15;100.00
59435;BME280;45241;49.768;8.636;2024-01-06T04:53:06;99127.13;;;6.08;100.00
59435;BME280;45241;49.768;8.636;2024-01-06T04:55:31;99128.72;;;6.03;100.00
59435;BME280;45241;49.768;8.636;2024-01-06T04:57:56;99118.44;;;6.00;100.00
59435;BME280;45241;49.768;8.636;2024-01-06T05:00:22;99126.44;;;6.21;100.00
59435;BME280;45241;49.768;8.636;2024-01-06T05:02:47;99128.84;;;6.16;100.00
59435;BME280;45241;49.768;8.636;2024-01-06T05:05:12;99131.16;;;6.19;100.00
59435;BME280;45241;49.768;8.636;2024-01-06T05:07:37;99134.16;;;6.16;100.00
59435;BME280;45241;49.768;8.636;2024-01-06T05:10:03;99137.97;;;6.07;100.00
59435;BME280;45241;49.768;8.636;2024-01-06T05:12:28;99141.31;;;6.16;100.00
59435;BME280;45241;49.768;8.636;2024-01-06T05:14:54;99145.19;;;6.34;100.00
59435;BME280;45241;49.768;8.636;2024-01-06T05:17:19;99149.44;;;6.29;100.00
59435;BME280;45241;49.768;8.636;2024-01-06T05:19:44;99147.88;;;6.34;100.00
59435;BME280;45241;49.768;8.636;2024-01-06T05:22:09;99153.38;;;6.33;100.00
59435;BME280;45241;49.768;8.636;2024-01-06T05:24:35;99147.28;;;6.18;100.00
59435;BME280;45241;49.768;8.636;2024-01-06T05:27:00;99147.34;;;6.46;100.00
59435;BME280;45241;49.768;8.636;2024-01-06T05:29:25;99149.81;;;6.47;100.00
59435;BME280;45241;49.768;8.636;2024-01-06T05:31:51;99151.53;;;6.33;100.00
59435;BME280;45241;49.768;8.636;2024-01-06T05:34:17;99158.63;;;6.48;100.00
59435;BME280;45241;49.768;8.636;2024-01-06T05:36:42;99152.03;;;6.43;100.00
59435;BME280;45241;49.768;8.636;2024-01-06T05:39:07;99155.19;;;6.54;100.00
59435;BME280;45241;49.768;8.636;2024-01-06T05:41:39;99156.09;;;6.39;100.00
59435;BME280;45241;49.768;8.636;2024-01-06T05:44:05;99160.91;;;6.29;100.00
59435;BME280;45241;49.768;8.636;2024-01-06T05:46:30;99166.81;;;6.25;100.00
59435;BME280;45241;49.768;8.636;2024-01-06T05:48:56;99161.28;;;6.26;100.00
59435;BME280;45241;49.768;8.636;2024-01-06T05:51:22;99161.47;;;6.25;100.00
59435;BME280;45241;49.768;8.636;2024-01-06T05:53:47;99167.06;;;6.08;100.00
59435;BME280;45241;49.768;8.636;2024-01-06T05:56:24;99174.19;;;6.44;100.00
59435;BME280;45241;49.768;8.636;2024-01-06T05:58:51;99177.00;;;6.42;100.00
59435;BME280;45241;49.768;8.636;2024-01-06T06:01:16;99180.31;;;6.45;100.00
59435;BME280;45241;49.768;8.636;2024-01-06T06:03:42;99176.94;;;6.36;100.00
59435;BME280;45241;49.768;8.636;2024-01-06T06:06:08;99180.00;;;6.33;100.00
59435;BME280;45241;49.768;8.636;2024-01-06T06:08:33;99175.53;;;6.40;100.00
59435;BME280;45241;49.768;8.636;2024-01-06T06:10:58;99182.84;;;6.31;100.00
59435;BME280;45241;49.768;8.636;2024-01-06T06:13:29;99184.44;;;6.47;100.00
59435;BME280;45241;49.768;8.636;2024-01-06T06:15:55;99186.69;;;6.29;100.00
59435;BME280;45241;49.768;8.636;2024-01-06T06:18:20;99192.22;;;6.49;100.00
59435;BME280;45241;49.768;8.636;2024-01-06T06:20:46;99198.53;;;6.26;100.00
59435;BME280;45241;49.768;8.636;2024-01-06T06:23:12;99206.38;;;6.49;100.00
59435;BME280;45241;49.768;8.636;2024-01-06T06:25:40;99200.47;;;6.54;100.00
59435;BME280;45241;49.768;8.636;2024-01-06T06:28:06;99198.31;;;6.64;100.00
59435;BME280;45241;49.768;8.636;2024-01-06T06:30:32;99200.06;;;6.57;100.00
59435;BME280;45241;49.768;8.636;2024-01-06T06:32:57;99209.34;;;6.39;100.00
59435;BME280;45241;49.768;8.636;2024-01-06T06:35:23;99206.63;;;6.33;100.00
59435;BME280;45241;49.768;8.636;2024-01-06T06:37:49;99213.41;;;6.35;100.00
59435;BME280;45241;49.768;8.636;2024-01-06T06:40:14;99220.94;;;6.53;100.00
59435;BME280;45241;49.768;8.636;2024-01-06T06:42:40;99225.25;;;6.33;100.00
59435;BME280;45241;49.768;8.636;2024-01-06T06:45:05;99232.16;;;6.49;100.00
59435;BME280;45241;49.768;8.636;2024-01-06T06:47:31;99228.41;;;6.43;100.00
59435;BME280;45241;49.768;8.636;2024-01-06T06:49:56;99229.88;;;6.46;100.00
59435;BME280;45241;49.768;8.636;2024-01-06T06:52:21;99235.13;;;6.39;100.00
59435;BME280;45241;49.768;8.636;2024-01-06T06:54:46;99236.97;;;6.38;100.00
59435;BME280;45241;49.768;8.636;2024-01-06T06:57:14;99240.88;;;6.42;100.00
59435;BME280;45241;49.768;8.636;2024-01-06T06:59:40;99237.94;;;6.52;100.00
59435;BME280;45241;49.768;8.636;2024-01-06T07:02:05;99242.88;;;6.34;100.00
59435;BME280;45241;49.768;8.636;2024-01-06T07:04:31;99245.91;;;6.16;100.00
59435;BME280;45241;49.768;8.636;2024-01-06T07:06:56;99243.31;;;6.37;100.00
59435;BME280;45241;49.768;8.636;2024-01-06T07:09:22;99253.06;;;6.16;100.00
59435;BME280;45241;49.768;8.636;2024-01-06T07:11:49;99259.09;;;6.39;100.00
59435;BME280;45241;49.768;8.636;2024-01-06T07:14:15;99255.41;;;6.19;100.00
59435;BME280;45241;49.768;8.636;2024-01-06T07:16:40;99256.72;;;6.29;100.00
59435;BME280;45241;49.768;8.636;2024-01-06T07:19:05;99263.88;;;6.29;100.00
59435;BME280;45241;49.768;8.636;2024-01-06T07:21:30;99269.41;;;6.27;100.00
59435;BME280;45241;49.768;8.636;2024-01-06T07:23:56;99275.50;;;6.42;100.00
59435;BME280;45241;49.768;8.636;2024-01-06T07:26:21;99276.75;;;6.25;100.00
59435;BME280;45241;49.768;8.636;2024-01-06T07:28:46;99278.00;;;6.29;100.00
59435;BME280;45241;49.768;8.636;2024-01-06T07:31:12;99274.09;;;6.25;100.00
59435;BME280;45241;49.768;8.636;2024-01-06T07:33:37;99278.94;;;6.36;100.00
59435;BME280;45241;49.768;8.636;2024-01-06T07:36:02;99286.19;;;6.28;100.00
59435;BME280;45241;49.768;8.636;2024-01-06T07:38:28;99283.91;;;6.25;100.00
59435;BME280;45241;49.768;8.636;2024-01-06T07:40:56;99284.16;;;6.45;100.00
59435;BME280;45241;49.768;8.636;2024-01-06T07:43:21;99288.31;;;6.32;100.00
59435;BME280;45241;49.768;8.636;2024-01-06T07:45:46;99296.00;;;6.27;100.00
59435;BME280;45241;49.768;8.636;2024-01-06T07:48:11;99297.50;;;6.15;100.00
59435;BME280;45241;49.768;8.636;2024-01-06T07:50:37;99295.94;;;6.21;100.00
59435;BME280;45241;49.768;8.636;2024-01-06T07:53:03;99305.47;;;6.15;100.00
59435;BME280;45241;49.768;8.636;2024-01-06T07:55:28;99311.09;;;6.20;100.00
59435;BME280;45241;49.768;8.636;2024-01-06T07:57:54;99315.88;;;6.10;100.00
59435;BME280;45241;49.768;8.636;2024-01-06T08:00:19;99323.25;;;6.29;100.00
59435;BME280;45241;49.768;8.636;2024-01-06T08:02:44;99318.22;;;6.34;100.00
59435;BME280;45241;49.768;8.636;2024-01-06T08:05:10;99323.25;;;6.29;100.00
59435;BME280;45241;49.768;8.636;2024-01-06T08:07:35;99317.59;;;6.32;100.00
59435;BME280;45241;49.768;8.636;2024-01-06T08:10:01;99333.66;;;6.24;100.00
59435;BME280;45241;49.768;8.636;2024-01-06T08:12:30;99332.41;;;6.41;100.00
59435;BME280;45241;49.768;8.636;2024-01-06T08:14:55;99330.06;;;6.32;100.00
59435;BME280;45241;49.768;8.636;2024-01-06T08:17:20;99340.16;;;6.22;100.00
59435;BME280;45241;49.768;8.636;2024-01-06T08:19:45;99336.31;;;6.09;100.00
59435;BME280;45241;49.768;8.636;2024-01-06T08:22:12;99337.88;;;6.04;100.00
59435;BME280;45241;49.768;8.636;2024-01-06T08:24:38;99342.09;;;6.13;100.00
59435;BME280;45241;49.768;8.636;2024-01-06T08:27:03;99343.81;;;6.35;100.00
59435;BME280;45241;49.768;8.636;2024-01-06T08:29:29;99348.78;;;6.24;100.00
59435;BME280;45241;49.768;8.636;2024-01-06T08:31:54;99353.03;;;6.18;100.00
59435;BME280;45241;49.768;8.636;2024-01-06T08:34:20;99357.78;;;6.37;100.00
59435;BME280;45241;49.768;8.636;2024-01-06T08:36:45;99357.13;;;6.35;100.00
59435;BME280;45241;49.768;8.636;2024-01-06T08:39:11;99350.53;;;6.31;100.00
59435;BME280;45241;49.768;8.636;2024-01-06T08:41:36;99347.53;;;6.20;100.00
59435;BME280;45241;49.768;8.636;2024-01-06T08:44:02;99347.13;;;6.37;100.00
59435;BME280;45241;49.768;8.636;2024-01-06T08:46:27;99339.53;;;6.20;100.00
59435;BME280;45241;49.768;8.636;2024-01-06T08:48:52;99344.81;;;6.49;100.00
59435;BME280;45241;49.768;8.636;2024-01-06T08:51:18;99343.41;;;6.53;100.00
59435;BME280;45241;49.768;8.636;2024-01-06T08:53:45;99352.53;;;6.44;100.00
59435;BME280;45241;49.768;8.636;2024-01-06T08:56:11;99359.81;;;6.35;100.00
59435;BME280;45241;49.768;8.636;2024-01-06T08:58:36;99364.00;;;6.30;100.00
59435;BME280;45241;49.768;8.636;2024-01-06T09:01:01;99370.00;;;6.32;100.00
59435;BME280;45241;49.768;8.636;2024-01-06T09:03:26;99382.63;;;6.30;100.00
59435;BME280;45241;49.768;8.636;2024-01-06T09:05:53;99381.53;;;6.39;100.00
59435;BME280;45241;49.768;8.636;2024-01-06T09:08:19;99391.34;;;6.53;100.00
59435;BME280;45241;49.768;8.636;2024-01-06T09:10:44;99387.03;;;6.52;100.00
59435;BME280;45241;49.768;8.636;2024-01-06T09:13:10;99388.97;;;6.43;100.00
59435;BME280;45241;49.768;8.636;2024-01-06T09:15:35;99386.31;;;6.43;100.00
59435;BME280;45241;49.768;8.636;2024-01-06T09:18:00;99394.66;;;6.40;100.00
59435;BME280;45241;49.768;8.636;2024-01-06T09:20:26;99395.97;;;6.45;100.00
59435;BME280;45241;49.768;8.636;2024-01-06T09:22:52;99387.78;;;6.46;100.00
59435;BME280;45241;49.768;8.636;2024-01-06T09:25:18;99393.38;;;6.51;100.00
59435;BME280;45241;49.768;8.636;2024-01-06T09:27:43;99396.38;;;6.63;100.00
59435;BME280;45241;49.768;8.636;2024-01-06T09:30:09;99400.91;;;6.48;100.00
59435;BME280;45241;49.768;8.636;2024-01-06T09:32:34;99407.25;;;6.47;100.00
59435;BME280;45241;49.768;8.636;2024-01-06T09:34:59;99409.44;;;6.58;100.00
59435;BME280;45241;49.768;8.636;2024-01-06T09:37:24;99410.91;;;6.60;100.00
59435;BME280;45241;49.768;8.636;2024-01-06T09:39:50;99412.56;;;6.61;100.00
59435;BME280;45241;49.768;8.636;2024-01-06T09:42:15;99413.28;;;6.70;100.00
59435;BME280;45241;49.768;8.636;2024-01-06T09:44:41;99408.06;;;6.62;100.00
59435;BME280;45241;49.768;8.636;2024-01-06T09:47:09;99416.94;;;6.69;100.00
59435;BME280;45241;49.768;8.636;2024-01-06T09:49:38;99419.44;;;6.56;100.00
59435;BME280;45241;49.768;8.636;2024-01-06T09:52:12;99428.50;;;6.76;100.00
59435;BME280;45241;49.768;8.636;2024-01-06T09:54:41;99429.63;;;6.52;100.00
59435;BME280;45241;49.768;8.636;2024-01-06T09:57:10;99436.44;;;6.55;100.00
59435;BME280;45241;49.768;8.636;2024-01-06T09:59:36;99434.31;;;6.50;100.00
59435;BME280;45241;49.768;8.636;2024-01-06T10:02:03;99432.88;;;6.48;100.00
59435;BME280;45241;49.768;8.636;2024-01-06T10:04:29;99437.25;;;6.40;100.00
59435;BME280;45241;49.768;8.636;2024-01-06T10:06:54;99440.03;;;6.47;100.00
59435;BME280;45241;49.768;8.636;2024-01-06T10:09:26;99440.56;;;6.42;100.00
59435;BME280;45241;49.768;8.636;2024-01-06T10:11:55;99437.63;;;6.52;100.00
59435;BME280;45241;49.768;8.636;2024-01-06T10:14:20;99440.56;;;6.57;100.00
59435;BME280;45241;49.768;8.636;2024-01-06T10:16:46;99440.56;;;6.57;100.00
59435;BME280;45241;49.768;8.636;2024-01-06T10:19:14;99443.34;;;6.34;100.00
59435;BME280;45241;49.768;8.636;2024-01-06T10:21:39;99445.25;;;6.26;100.00
59435;BME280;45241;49.768;8.636;2024-01-06T10:24:07;99446.19;;;6.33;100.00
59435;BME280;45241;49.768;8.636;2024-01-06T10:26:33;99447.47;;;6.37;100.00
59435;BME280;45241;49.768;8.636;2024-01-06T10:28:58;99440.22;;;6.46;100.00
59435;BME280;45241;49.768;8.636;2024-01-06T10:31:25;99439.28;;;6.53;100.00
59435;BME280;45241;49.768;8.636;2024-01-06T10:33:51;99431.94;;;6.55;100.00
59435;BME280;45241;49.768;8.636;2024-01-06T10:36:17;99427.53;;;6.62;100.00
59435;BME280;45241;49.768;8.636;2024-01-06T10:38:44;99431.75;;;6.42;100.00
59435;BME280;45241;49.768;8.636;2024-01-06T10:41:11;99430.47;;;6.38;100.00
59435;BME280;45241;49.768;8.636;2024-01-06T10:43:37;99422.03;;;6.49;100.00
59435;BME280;45241;49.768;8.636;2024-01-06T10:46:07;99417.78;;;6.55;100.00
59435;BME280;45241;49.768;8.636;2024-01-06T10:48:36;99423.63;;;6.80;100.00
59435;BME280;45241;49.768;8.636;2024-01-06T10:51:03;99417.78;;;6.55;100.00
59435;BME280;45241;49.768;8.636;2024-01-06T10:53:33;99424.38;;;6.73;100.00
59435;BME280;45241;49.768;8.636;2024-01-06T10:55:59;99419.88;;;6.74;100.00
59435;BME280;45241;49.768;8.636;2024-01-06T10:58:24;99423.75;;;6.57;100.00
59435;BME280;45241;49.768;8.636;2024-01-06T11:00:51;99420.75;;;6.60;100.00
59435;BME280;45241;49.768;8.636;2024-01-06T11:03:17;99429.72;;;6.73;100.00
59435;BME280;45241;49.768;8.636;2024-01-06T11:05:43;99434.22;;;6.73;100.00
59435;BME280;45241;49.768;8.636;2024-01-06T11:08:09;99427.69;;;6.76;100.00
59435;BME280;45241;49.768;8.636;2024-01-06T11:10:36;99427.97;;;6.66;100.00
59435;BME280;45241;49.768;8.636;2024-01-06T11:13:09;99433.47;;;6.79;100.00
59435;BME280;45241;49.768;8.636;2024-01-06T11:15:46;99415.72;;;6.86;100.00
59435;BME280;45241;49.768;8.636;2024-01-06T11:18:33;99425.59;;;6.71;100.00
59435;BME280;45241;49.768;8.636;2024-01-06T11:21:15;99419.09;;;6.95;100.00
59435;BME280;45241;49.768;8.636;2024-01-06T11:23:44;99420.91;;;6.73;100.00
59435;BME280;45241;49.768;8.636;2024-01-06T11:26:10;99425.84;;;6.76;100.00
59435;BME280;45241;49.768;8.636;2024-01-06T11:28:45;99425.19;;;6.89;100.00
59435;BME280;45241;49.768;8.636;2024-01-06T11:31:11;99413.78;;;7.10;100.00
59435;BME280;45241;49.768;8.636;2024-01-06T11:33:43;99410.75;;;6.98;100.00
59435;BME280;45241;49.768;8.636;2024-01-06T11:36:09;99405.25;;;7.21;100.00
59435;BME280;45241;49.768;8.636;2024-01-06T11:38:39;99407.97;;;7.06;100.00
59435;BME280;45241;49.768;8.636;2024-01-06T11:41:08;99410.16;;;7.17;100.00
59435;BME280;45241;49.768;8.636;2024-01-06T11:43:35;99404.91;;;7.24;100.00
59435;BME280;45241;49.768;8.636;2024-01-06T11:46:05;99403.31;;;7.29;100.00
59435;BME280;45241;49.768;8.636;2024-01-06T11:48:32;99405.53;;;7.26;100.00
59435;BME280;45241;49.768;8.636;2024-01-06T11:50:58;99404.00;;;7.17;100.00
59435;BME280;45241;49.768;8.636;2024-01-06T11:53:26;99403.28;;;7.08;100.00
59435;BME280;45241;49.768;8.636;2024-01-06T11:55:52;99394.03;;;7.04;100.00
59435;BME280;45241;49.768;8.636;2024-01-06T11:58:17;99393.66;;;7.28;100.00
59435;BME280;45241;49.768;8.636;2024-01-06T12:00:42;99402.31;;;7.58;100.00
59435;BME280;45241;49.768;8.636;2024-01-06T12:03:08;99403.94;;;7.81;100.00
59435;BME280;45241;49.768;8.636;2024-01-06T12:05:34;99398.38;;;7.76;100.00
59435;BME280;45241;49.768;8.636;2024-01-06T12:08:00;99394.63;;;7.70;100.00
59435;BME280;45241;49.768;8.636;2024-01-06T12:10:28;99393.69;;;7.56;100.00
59435;BME280;45241;49.768;8.636;2024-01-06T12:13:01;99403.53;;;7.77;100.00
59435;BME280;45241;49.768;8.636;2024-01-06T12:15:29;99397.16;;;7.78;100.00
59435;BME280;45241;49.768;8.636;2024-01-06T12:17:54;99395.81;;;7.61;100.00
59435;BME280;45241;49.768;8.636;2024-01-06T12:20:21;99398.75;;;7.23;100.00
59435;BME280;45241;49.768;8.636;2024-01-06T12:22:47;99401.28;;;7.10;100.00
59435;BME280;45241;49.768;8.636;2024-01-06T12:25:14;99399.66;;;7.58;100.00
59435;BME280;45241;49.768;8.636;2024-01-06T12:27:44;99391.31;;;7.40;100.00
59435;BME280;45241;49.768;8.636;2024-01-06T12:30:14;99392.06;;;7.34;100.00
59435;BME280;45241;49.768;8.636;2024-01-06T12:32:42;99390.78;;;7.51;100.00
59435;BME280;45241;49.768;8.636;2024-01-06T12:35:09;99397.72;;;7.74;100.00
59435;BME280;45241;49.768;8.636;2024-01-06T12:37:35;99399.44;;;7.53;100.00
59435;BME280;45241;49.768;8.636;2024-01-06T12:40:01;99401.06;;;7.54;100.00
59435;BME280;45241;49.768;8.636;2024-01-06T12:42:26;99399.19;;;7.27;100.00
59435;BME280;45241;49.768;8.636;2024-01-06T12:44:52;99404.47;;;7.06;100.00
59435;BME280;45241;49.768;8.636;2024-01-06T12:47:17;99401.44;;;7.09;100.00
59435;BME280;45241;49.768;8.636;2024-01-06T12:49:43;99405.66;;;7.39;100.00
59435;BME280;45241;49.768;8.636;2024-01-06T12:52:08;99405.53;;;7.26;100.00
59435;BME280;45241;49.768;8.636;2024-01-06T12:54:34;99405.56;;;7.32;100.00